CST,Max TemperatureF,Mean TemperatureF,Min TemperatureF,Max Dew PointF,MeanDew PointF,Min DewpointF,Max Humidity, Mean Humidity, Min Humidity, Max Sea Level PressureIn, Mean Sea Level PressureIn, Min Sea Level PressureIn, Max VisibilityMiles, Mean VisibilityMiles, Min VisibilityMiles, Max Wind SpeedMPH, Mean Wind SpeedMPH, Max Gust SpeedMPH,PrecipitationIn, CloudCover, Events, WindDirDegrees
2012-11-1,73,56,39,50,44,38,97,74,37,30.09,30.00,29.92,10,8,4,5,1,,0.00,0,,130
2012-11-2,86,64,44,55,50,43,97,66,27,29.97,29.93,29.89,10,8,4,5,1,,0.00,0,,-1
2012-11-3,82,71,57,62,55,42,90,59,43,30.08,29.98,29.91,10,10,10,9,4,18,0.00,3,Rain,296
2012-11-4,68,56,45,53,45,42,97,74,40,30.18,30.12,30.07,10,10,7,5,1,,0.04,2,Rain,130
2012-11-5,69,56,42,48,44,40,97,74,40,30.08,30.01,29.91,10,9,5,9,1,21,0.00,4,,330
2012-11-6,64,50,37,42,39,36,100,74,34,30.12,30.05,30.00,10,9,4,7,1,,0.00,0,,328
2012-11-7,64,49,34,38,34,28,100,67,26,30.15,30.11,30.07,10,10,10,9,2,18,0.00,0,,326
2012-11-8,64,48,32,42,37,31,96,66,37,30.24,30.15,30.07,10,10,10,9,2,,0.00,0,,140
2012-11-9,75,66,57,57,51,42,82,64,51,30.12,30.05,29.97,10,10,10,8,4,20,0.00,2,,178
2012-11-10,73,67,61,58,56,53,90,71,51,30.10,30.01,29.93,10,10,9,12,5,21,0.00,5,,153
2012-11-11,66,54,42,64,55,39,100,91,70,30.17,29.95,29.80,10,7,0,13,7,26,0.76,8,Fog-Rain,205
2012-11-12,55,42,28,37,28,19,96,66,25,30.51,30.40,30.20,10,10,10,10,5,16,0.00,2,,326
2012-11-13,55,40,25,32,27,22,96,70,29,30.55,30.46,30.38,10,10,5,5,1,,0.00,0,,290
2012-11-14,57,44,30,32,29,22,96,70,27,30.46,30.38,30.32,10,10,7,6,1,,0.00,0,,15
2012-11-15,59,42,26,34,30,25,96,72,33,30.39,30.34,30.28,10,10,10,4,0,,0.00,0,,120
2012-11-16,61,44,27,34,30,26,100,71,29,30.44,30.39,30.35,10,10,8,6,1,,0.00,0,,95
2012-11-17,63,44,26,36,30,25,96,70,28,30.47,30.39,30.34,10,10,8,6,0,,0.00,0,,80
2012-11-18,64,46,27,38,33,26,100,68,30,30.38,30.32,30.26,10,9,6,5,0,,0.00,0,,190
2012-11-19,62,50,39,45,41,36,89,69,39,30.28,30.22,30.17,10,10,10,4,1,,0.00,6,,190
2012-11-20,75,57,39,52,46,39,97,75,43,30.20,30.16,30.09,10,9,4,5,1,,0.00,1,,340
2012-11-21,72,54,35,47,40,36,100,78,30,30.29,30.21,30.16,10,7,2,4,0,,0.00,0,,90
2012-11-22,66,51,36,56,45,35,100,74,48,30.18,30.12,30.05,10,9,6,6,1,,0.06,2,Rain,153
2012-11-23,60,48,34,56,38,21,100,64,27,30.39,30.27,30.12,10,8,2,13,3,22,0.17,3,Rain,333
2012-11-24,54,40,27,28,22,15,89,56,22,30.40,30.28,30.14,10,10,10,4,1,,0.00,0,,281
2012-11-25,64,46,28,42,33,25,92,61,34,30.11,30.01,29.92,10,10,10,8,1,,0.00,0,,220
2012-11-26,61,54,45,57,50,38,93,85,76,30.23,30.01,29.94,10,9,6,7,2,,0.00,7,,138
2012-11-27,54,42,30,36,31,28,96,67,37,30.40,30.33,30.25,10,10,10,6,1,,0.00,2,,-1
2012-11-28,57,41,25,36,31,23,96,75,37,30.49,30.39,30.32,10,10,10,5,0,,0.00,0,,-1
2012-11-29,64,46,28,36,31,24,96,60,23,30.32,30.24,30.16,10,10,10,9,2,,0.00,0,,182
2012-11-30,62,54,48,55,45,32,88,69,45,30.20,30.15,30.10,10,10,9,7,1,,0.00,7,,171